Hauptseite
METAR-TAF:

METAR-TAF

Flughäfen :

Monte Malanotte

Prato Nevoso, Italien

Breite: 44-15N, Länge: 007-48E, Höhe: 1741 m

Beobachtung

Neuester Wetterbericht von vor 10 Stunden und 15 Minuten, um 17:55 UTC
Wind 3 kt aus unterschiedlichen Richtungen
Temperatur 14°C
Luftfeuchtigkeit 94%
Luftdruck 1020 hPa
Sichtweite: 3000 m
Durchbrochene Bewölkung in der Höhe von 1300 ft
feuchter Dunst

METAR: LIMY 151755Z VRB03KT 3000 BR BKN013 14/13 Q1020 RMK OVC SCT053 VAL FOSCHIA VIS MIN 3000

Zeit: 06:10 (04:10 UTC)


TAF: fehlend

Wetterbeobachtungen und Prognosen von mehr als 4000 Flughäfen (METAR und TAF Bericht).

Die verfügbaren Stationen werden durch gelbe und rote Markierungen auf der Karte dargestellt.

Führen Sie die Maus auf sie, um den Namen der Station zu sehen.

Darauf klicken, um die Beobachtung von Wetterbeobachtungen und Prognosen zu sehen.

Um die Karte zu ändern : klicken Sie auf den grünen Tasten mit einem schwarzen Kreuz Zum Vergrößern, auf den grünen Button mit einem Gedankenstrich zu verkleinern, oder auf die grünen Pfeile für benachbarte Karten.


METAR-TAF: